Time;durP1;ratioP1;P1;durP2;ratioP2;P2;SDS_P1;SDS_P2;PMS_P1;PMS_P2;Temp;Humidity;BMP_temperature;BMP_pressure;BME280_temperature;BME280_humidity;BME280_pressure;Samples;Min_cycle;Max_cycle;Signal;HPM_P1;HPM_P2
2023/12/18 00:02:16;;;;;;;3.40;3.00;;;15.70;68.50;16.50;102510.00;;;;5053867;28;20182;-44
2023/12/18 00:04:41;;;;;;;2.60;2.40;;;15.70;68.50;16.50;102516.00;;;;5058189;28;20181;-44
2023/12/18 00:07:07;;;;;;;3.43;2.50;;;15.60;68.30;16.50;102517.00;;;;5053944;28;20669;-44
2023/12/18 00:09:33;;;;;;;3.10;2.80;;;15.70;68.40;16.50;102518.00;;;;5055240;28;20194;-44
2023/12/18 00:11:58;;;;;;;3.37;2.90;;;15.60;68.30;16.50;102525.00;;;;5054000;28;20185;-44
2023/12/18 00:14:24;;;;;;;3.20;2.67;;;15.60;68.30;16.50;102520.00;;;;5054754;28;20682;-49
2023/12/18 00:16:50;;;;;;;2.90;2.60;;;15.60;68.20;16.50;102511.00;;;;5052689;28;20178;-44
2023/12/18 00:19:16;;;;;;;2.63;2.43;;;15.60;68.10;16.40;102504.00;;;;5053979;28;20211;-44
2023/12/18 00:21:41;;;;;;;2.93;2.63;;;15.60;68.10;16.40;102497.00;;;;5055275;28;20183;-44
2023/12/18 00:24:07;;;;;;;2.77;2.57;;;15.50;68.00;16.40;102499.00;;;;5053755;28;20186;-44
2023/12/18 00:26:33;;;;;;;2.73;2.53;;;15.50;68.80;16.40;102494.00;;;;5056747;28;20183;-42
2023/12/18 00:28:58;;;;;;;2.50;2.30;;;15.50;68.00;16.40;102505.00;;;;5053976;28;20217;-43
2023/12/18 00:31:24;;;;;;;2.87;2.60;;;15.50;67.90;16.40;102494.00;;;;5054480;28;20684;-43
2023/12/18 00:33:50;;;;;;;3.60;2.63;;;15.50;67.90;16.40;102503.00;;;;5054013;28;20187;-43
2023/12/18 00:36:16;;;;;;;3.10;2.80;;;15.50;68.20;16.30;102494.00;;;;5053484;28;20194;-47
2023/12/18 00:38:42;;;;;;;3.13;2.50;;;15.50;67.80;16.30;102492.00;;;;5054807;28;20711;-43
2023/12/18 00:41:07;;;;;;;2.80;2.60;;;15.50;67.70;16.30;102488.00;;;;5052764;28;20187;-43
2023/12/18 00:43:33;;;;;;;2.90;2.63;;;15.50;67.80;16.30;102491.00;;;;5054495;28;20179;-43
2023/12/18 00:46:00;;;;;;;2.87;2.60;;;15.40;67.60;16.30;102498.00;;;;5053438;28;20197;-43
2023/12/18 00:48:26;;;;;;;2.83;2.63;;;15.40;67.60;16.30;102499.00;;;;5054276;28;20702;-42
2023/12/18 00:50:52;;;;;;;2.80;2.60;;;15.40;67.50;16.30;102500.00;;;;5053459;28;20182;-42
2023/12/18 00:53:18;;;;;;;3.47;2.80;;;15.40;67.50;16.30;102496.00;;;;5051690;28;20203;-43
2023/12/18 00:55:43;;;;;;;3.77;2.70;;;15.40;67.40;16.30;102496.00;;;;5054642;28;20181;-42
2023/12/18 00:58:10;;;;;;;2.87;2.63;;;15.40;67.30;16.20;102490.00;;;;5051398;28;20572;-43
2023/12/18 01:00:35;;;;;;;2.80;2.60;;;15.30;67.20;16.20;102491.00;;;;5052999;28;20206;-43
2023/12/18 01:03:01;;;;;;;2.70;2.50;;;15.30;67.30;16.20;102496.00;;;;5052833;28;20225;-42
2023/12/18 01:05:27;;;;;;;3.23;2.90;;;15.30;67.50;16.20;102487.00;;;;5054726;28;20206;-43
2023/12/18 01:07:52;;;;;;;3.10;2.80;;;15.30;67.60;16.20;102481.00;;;;5050111;28;20239;-43
2023/12/18 01:10:18;;;;;;;2.70;2.50;;;15.30;67.60;16.20;102447.00;;;;5052237;28;20860;-45
2023/12/18 01:12:44;;;;;;;3.53;2.77;;;15.20;67.50;16.20;102476.00;;;;5052095;28;20253;-42
2023/12/18 01:15:10;;;;;;;3.20;2.90;;;15.20;67.50;16.10;102486.00;;;;5051800;28;20182;-42
2023/12/18 01:17:36;;;;;;;3.70;2.80;;;15.20;68.20;16.10;102495.00;;;;5052888;28;20220;-43
2023/12/18 01:20:03;;;;;;;3.40;2.57;;;15.20;67.40;16.10;102481.00;;;;5050505;28;20170;-43
2023/12/18 01:22:29;;;;;;;3.00;2.70;;;15.20;67.30;16.10;102487.00;;;;5035256;28;20178;-43
2023/12/18 01:24:54;;;;;;;3.13;2.90;;;15.20;67.30;16.10;102481.00;;;;5051623;28;20186;-43
2023/12/18 01:27:20;;;;;;;3.10;2.80;;;15.10;67.20;16.10;102492.00;;;;5053298;28;20202;-43
2023/12/18 01:29:46;;;;;;;2.90;2.70;;;15.10;67.30;16.10;102495.00;;;;5051546;28;20185;-43
2023/12/18 01:32:11;;;;;;;2.90;2.70;;;15.10;67.20;16.10;102504.00;;;;5051600;28;20173;-43
2023/12/18 01:34:38;;;;;;;3.00;2.70;;;15.10;67.20;16.00;102489.00;;;;5053106;28;20181;-43
2023/12/18 01:37:05;;;;;;;3.23;2.97;;;15.10;67.20;16.00;102484.00;;;;5051827;28;20559;-42
2023/12/18 01:39:32;;;;;;;2.90;2.70;;;15.10;67.10;16.00;102487.00;;;;5052906;28;20227;-43
2023/12/18 01:41:59;;;;;;;3.10;2.80;;;15.10;67.20;16.00;102494.00;;;;5051589;28;20197;-43
2023/12/18 01:44:24;;;;;;;4.73;2.90;;;15.00;67.10;16.00;102469.00;;;;5052090;28;20181;-44
2023/12/18 01:46:50;;;;;;;3.33;2.97;;;15.00;67.00;16.00;102492.00;;;;5051508;28;20174;-43
2023/12/18 01:49:16;;;;;;;3.43;2.97;;;15.00;67.20;16.00;102484.00;;;;5050009;28;20811;-43
2023/12/18 01:51:42;;;;;;;2.90;2.70;;;15.10;67.40;16.00;102498.00;;;;5052856;28;20182;-43
2023/12/18 01:54:08;;;;;;;3.17;2.97;;;15.00;67.30;16.00;102496.00;;;;5051219;28;20204;-43
2023/12/18 01:56:34;;;;;;;3.20;2.90;;;15.00;67.20;16.00;102499.00;;;;5017404;28;20183;-43
2023/12/18 01:58:59;;;;;;;3.70;3.10;;;15.00;67.10;15.90;102488.00;;;;5049611;28;20202;-45
2023/12/18 02:01:27;;;;;;;3.73;2.90;;;15.00;67.10;15.90;102506.00;;;;5050968;28;20257;-43
2023/12/18 02:03:53;;;;;;;3.10;2.90;;;15.00;67.10;15.90;102475.00;;;;5050021;28;20711;-43
2023/12/18 02:06:18;;;;;;;3.03;2.83;;;15.00;67.10;15.90;102491.00;;;;5033097;28;20635;-43
2023/12/18 02:08:44;;;;;;;3.30;3.00;;;14.90;66.90;15.90;102493.00;;;;5034429;28;20202;-44
2023/12/18 02:11:10;;;;;;;3.43;3.13;;;14.90;66.80;15.90;102486.00;;;;5033352;28;20175;-43
2023/12/18 02:13:36;;;;;;;3.00;2.80;;;14.90;66.90;15.90;102501.00;;;;5050850;28;20174;-44
2023/12/18 02:16:01;;;;;;;2.87;2.67;;;14.90;66.80;15.80;102494.00;;;;5049686;28;20186;-43
2023/12/18 02:18:27;;;;;;;3.00;2.80;;;14.90;66.90;15.80;102426.00;;;;5051167;28;20244;-43
2023/12/18 02:20:54;;;;;;;2.93;2.73;;;14.90;66.80;15.80;102501.00;;;;5050965;28;20174;-43
2023/12/18 02:23:20;;;;;;;3.13;2.83;;;14.80;66.60;15.80;102502.00;;;;5050931;28;20240;-43
2023/12/18 02:25:46;;;;;;;3.33;3.03;;;14.80;66.60;15.80;102492.00;;;;5051807;28;20780;-44
2023/12/18 02:28:11;;;;;;;2.80;2.60;;;14.80;66.60;15.80;102482.00;;;;5050922;28;20194;-43
2023/12/18 02:30:37;;;;;;;2.80;2.60;;;14.80;66.50;15.70;102500.00;;;;5052245;28;20197;-43
2023/12/18 02:33:03;;;;;;;3.00;2.80;;;14.80;66.50;15.70;102498.00;;;;5051109;28;20190;-43
2023/12/18 02:35:29;;;;;;;2.83;2.63;;;14.70;66.40;15.70;102506.00;;;;5053527;28;20182;-44
2023/12/18 02:37:55;;;;;;;2.93;2.73;;;14.70;66.40;15.70;102501.00;;;;5045417;28;20633;-43
2023/12/18 02:40:22;;;;;;;2.97;2.70;;;14.70;66.80;15.70;102507.00;;;;5051560;28;20178;-43
2023/12/18 02:42:48;;;;;;;2.93;2.63;;;14.70;66.50;15.60;102494.00;;;;5051465;28;20170;-44
2023/12/18 02:45:14;;;;;;;2.93;2.73;;;14.70;66.40;15.60;102507.00;;;;5050687;28;20204;-43
2023/12/18 02:47:39;;;;;;;3.40;3.10;;;14.70;66.40;15.60;102505.00;;;;5053513;28;20204;-43
2023/12/18 02:50:06;;;;;;;2.83;2.63;;;14.60;66.20;15.60;102500.00;;;;5054529;28;20239;-43
2023/12/18 02:52:32;;;;;;;3.00;2.80;;;14.60;66.30;15.60;102508.00;;;;5052229;28;20208;-43
2023/12/18 02:54:59;;;;;;;3.00;2.80;;;14.60;66.10;15.50;102515.00;;;;5032798;28;20182;-43
2023/12/18 02:57:24;;;;;;;2.80;2.60;;;14.60;66.10;15.50;102500.00;;;;5049920;28;20252;-43
2023/12/18 02:59:50;;;;;;;2.77;2.57;;;14.60;66.00;15.50;102504.00;;;;5051261;28;20190;-43
2023/12/18 03:02:16;;;;;;;2.70;2.50;;;14.60;65.90;15.50;102503.00;;;;5050699;28;20706;-43
2023/12/18 03:04:41;;;;;;;2.70;2.50;;;14.60;65.90;15.50;102504.00;;;;5056801;28;20177;-43
2023/12/18 03:07:08;;;;;;;3.00;2.80;;;14.60;65.90;15.40;102515.00;;;;5051975;28;20175;-44
2023/12/18 03:09:34;;;;;;;2.90;2.53;;;14.50;65.80;15.40;102512.00;;;;5052187;28;20174;-44
2023/12/18 03:11:59;;;;;;;3.20;2.90;;;14.50;66.50;15.40;102500.00;;;;5050821;28;20228;-45
2023/12/18 03:14:25;;;;;;;2.80;2.60;;;14.50;65.70;15.40;102495.00;;;;5051499;28;20174;-44
2023/12/18 03:16:51;;;;;;;2.97;2.77;;;14.50;65.70;15.40;102500.00;;;;5050991;28;20170;-42
2023/12/18 03:19:18;;;;;;;2.87;2.67;;;14.50;65.70;15.40;102499.00;;;;5050283;28;20194;-43
2023/12/18 03:21:48;;;;;;;2.57;2.37;;;14.40;65.60;15.30;102483.00;;;;5049335;28;20207;-43
2023/12/18 03:24:14;;;;;;;3.00;2.80;;;14.50;65.60;15.30;102488.00;;;;5050159;28;20232;-43
2023/12/18 03:26:39;;;;;;;2.70;2.50;;;14.40;65.50;15.30;102488.00;;;;5053515;28;20185;-43
2023/12/18 03:29:05;;;;;;;2.90;2.70;;;14.40;66.20;15.30;102492.00;;;;5051343;28;20241;-43
2023/12/18 03:31:31;;;;;;;2.73;2.53;;;14.40;65.50;15.30;102486.00;;;;5055684;28;20580;-44
2023/12/18 03:33:57;;;;;;;2.83;2.63;;;14.30;65.30;15.20;102484.00;;;;5053960;28;20177;-42
2023/12/18 03:36:23;;;;;;;2.80;2.60;;;14.30;65.30;15.20;102475.00;;;;5054793;28;20174;-43
2023/12/18 03:38:48;;;;;;;2.70;2.50;;;14.30;65.30;15.20;102471.00;;;;5054557;28;20225;-43
2023/12/18 03:41:14;;;;;;;2.50;2.30;;;14.30;65.20;15.20;102475.00;;;;5054217;28;20171;-42
2023/12/18 03:43:40;;;;;;;2.90;2.70;;;14.30;65.40;15.20;102473.00;;;;5055744;28;20249;-43
2023/12/18 03:46:06;;;;;;;2.70;2.50;;;14.30;65.50;15.20;102454.00;;;;5054271;28;20249;-42
2023/12/18 03:48:32;;;;;;;2.70;2.50;;;14.30;65.50;15.20;102458.00;;;;5055464;28;20572;-43
2023/12/18 03:50:57;;;;;;;2.70;2.50;;;14.30;65.40;15.20;102448.00;;;;5054066;28;20178;-43
2023/12/18 03:53:23;;;;;;;2.60;2.40;;;14.30;65.40;15.20;102459.00;;;;5054268;28;20182;-43
2023/12/18 03:55:49;;;;;;;3.10;2.80;;;14.30;65.40;15.10;102463.00;;;;5054278;28;20319;-43
2023/12/18 03:58:14;;;;;;;2.77;2.57;;;14.30;65.40;15.10;102458.00;;;;5053473;28;20567;-44
2023/12/18 04:00:41;;;;;;;2.53;2.33;;;14.30;65.40;15.10;102463.00;;;;5055729;28;20173;-44
2023/12/18 04:03:07;;;;;;;2.90;2.70;;;14.20;65.20;15.10;102455.00;;;;5056655;28;20185;-43
2023/12/18 04:05:33;;;;;;;2.60;2.40;;;14.20;65.30;15.10;102455.00;;;;5057602;28;20166;-44
2023/12/18 04:07:58;;;;;;;2.70;2.50;;;14.20;65.20;15.10;102457.00;;;;5054539;28;20608;-42
2023/12/18 04:10:24;;;;;;;2.53;2.33;;;14.10;65.00;15.00;102456.00;;;;5055229;28;20257;-44
2023/12/18 04:12:51;;;;;;;2.70;2.50;;;14.10;65.00;15.00;102455.00;;;;5055032;28;20555;-44
2023/12/18 04:15:17;;;;;;;2.63;2.43;;;14.10;65.00;15.00;102447.00;;;;5036407;28;20178;-44
2023/12/18 04:17:42;;;;;;;2.70;2.50;;;14.10;65.10;14.80;102447.00;;;;5053085;28;20613;-43
2023/12/18 04:20:09;;;;;;;2.63;2.43;;;14.10;65.10;15.00;102444.00;;;;5054385;28;20174;-43
2023/12/18 04:22:34;;;;;;;3.57;2.47;;;14.10;65.00;15.00;102437.00;;;;5054634;28;20236;-43
2023/12/18 04:25:00;;;;;;;2.67;2.47;;;14.10;65.00;15.00;102435.00;;;;5052762;28;20217;-44
2023/12/18 04:27:26;;;;;;;2.60;2.40;;;14.10;64.90;15.00;102436.00;;;;5056824;28;20285;-43
2023/12/18 04:29:52;;;;;;;3.27;2.63;;;14.10;65.40;14.90;102432.00;;;;5054366;28;20174;-43
2023/12/18 04:32:17;;;;;;;2.70;2.50;;;14.00;65.40;14.90;102431.00;;;;5053853;28;20271;-43
2023/12/18 04:34:43;;;;;;;2.83;2.63;;;14.10;65.40;14.90;102437.00;;;;5053866;28;20577;-43
2023/12/18 04:37:09;;;;;;;2.70;2.50;;;14.10;65.20;14.90;102449.00;;;;5054227;28;20170;-44
2023/12/18 04:39:35;;;;;;;2.70;2.50;;;14.00;65.30;14.90;102441.00;;;;5055159;28;20202;-42
2023/12/18 04:42:01;;;;;;;2.77;2.50;;;14.00;65.30;14.90;102447.00;;;;5052425;28;20174;-43
2023/12/18 04:44:27;;;;;;;2.50;2.30;;;14.10;65.50;14.90;102439.00;;;;5055165;28;20509;-45
2023/12/18 04:46:52;;;;;;;2.57;2.37;;;14.20;65.50;14.90;102435.00;;;;5054467;28;20194;-43
2023/12/18 04:49:18;;;;;;;2.50;2.30;;;14.20;65.40;15.00;102438.00;;;;5052829;28;20206;-44
2023/12/18 04:51:44;;;;;;;2.60;2.40;;;14.40;65.40;15.00;102441.00;;;;5055358;28;20189;-43
2023/12/18 04:54:10;;;;;;;2.50;2.30;;;14.50;65.30;15.10;102448.00;;;;5054135;28;20182;-44
2023/12/18 04:56:36;;;;;;;2.37;2.17;;;14.60;65.00;15.20;102441.00;;;;5055413;28;20186;-44
2023/12/18 04:59:01;;;;;;;3.50;2.40;;;14.80;65.00;15.00;102436.00;;;;5052415;28;20202;-43
2023/12/18 05:01:28;;;;;;;2.40;2.20;;;14.90;64.70;15.40;102442.00;;;;5054788;28;20171;-48
2023/12/18 05:03:54;;;;;;;2.40;2.20;;;15.00;64.60;15.50;102437.00;;;;5056564;28;20177;-43
2023/12/18 05:06:25;;;;;;;2.47;2.10;;;15.10;64.30;15.50;102436.00;;;;5053577;28;20170;-43
2023/12/18 05:08:51;;;;;;;2.77;2.10;;;15.20;64.40;15.60;102438.00;;;;5052562;28;20217;-45
2023/12/18 05:11:18;;;;;;;2.40;2.20;;;15.20;64.40;15.70;102434.00;;;;5053546;28;20281;-44
2023/12/18 05:13:44;;;;;;;2.57;2.27;;;15.30;64.50;15.70;102435.00;;;;5051446;28;20205;-43
2023/12/18 05:16:09;;;;;;;2.17;2.00;;;15.30;64.50;15.80;102447.00;;;;5053229;28;20171;-45
2023/12/18 05:18:35;;;;;;;6.23;2.30;;;15.40;64.50;15.90;102454.00;;;;5054894;28;20578;-43
2023/12/18 05:21:02;;;;;;;2.33;2.10;;;15.40;64.50;15.90;102377.00;;;;5051909;28;20546;-47
2023/12/18 05:23:28;;;;;;;2.30;2.10;;;15.40;64.50;15.90;102460.00;;;;5020162;28;20166;-43
2023/12/18 05:25:54;;;;;;;2.30;2.10;;;15.40;64.80;16.00;102452.00;;;;5052211;28;20231;-44
2023/12/18 05:28:19;;;;;;;2.20;2.00;;;15.40;65.00;16.00;102452.00;;;;5055058;28;20201;-43
2023/12/18 05:30:45;;;;;;;2.40;2.20;;;15.50;65.30;16.00;102441.00;;;;5054677;28;20174;-44
2023/12/18 05:33:11;;;;;;;2.00;1.90;;;15.50;65.40;16.00;102449.00;;;;5053127;28;20525;-44
2023/12/18 05:35:37;;;;;;;2.93;2.10;;;15.50;65.40;16.00;102454.00;;;;5054817;28;20182;-43
2023/12/18 05:38:03;;;;;;;2.30;2.10;;;15.60;65.60;16.10;102453.00;;;;5054895;28;20619;-45
2023/12/18 05:40:29;;;;;;;3.33;2.10;;;15.50;65.70;16.10;102452.00;;;;5057181;28;20228;-43
2023/12/18 05:42:54;;;;;;;3.27;2.03;;;15.50;65.80;16.10;102444.00;;;;5053273;28;20232;-43
2023/12/18 05:45:20;;;;;;;3.93;2.20;;;15.60;65.90;16.10;102453.00;;;;5052102;28;20633;-43
2023/12/18 05:47:46;;;;;;;2.50;2.00;;;15.60;66.30;16.10;102448.00;;;;5052974;28;20756;-44
2023/12/18 05:50:12;;;;;;;3.90;2.20;;;15.60;66.60;16.20;102447.00;;;;5052772;28;20273;-45
2023/12/18 05:52:37;;;;;;;3.70;2.00;;;15.60;66.50;16.20;102447.00;;;;5054490;28;20252;-44
2023/12/18 05:55:04;;;;;;;5.00;2.33;;;15.60;66.40;16.20;102448.00;;;;5052825;28;20170;-45
2023/12/18 05:57:30;;;;;;;2.93;1.90;;;15.60;66.40;16.20;102440.00;;;;5054404;28;20190;-44
2023/12/18 05:59:56;;;;;;;3.20;2.00;;;15.70;66.60;16.30;102445.00;;;;5052627;28;20648;-45
2023/12/18 06:02:21;;;;;;;3.33;2.10;;;15.70;66.60;16.30;102441.00;;;;5053232;28;20209;-44
2023/12/18 06:04:47;;;;;;;2.13;1.97;;;15.70;66.70;16.30;102451.00;;;;5051648;28;20176;-45
2023/12/18 06:07:13;;;;;;;3.17;2.00;;;15.70;66.80;16.30;102443.00;;;;5052636;28;20175;-47
2023/12/18 06:09:39;;;;;;;2.67;2.23;;;15.70;67.00;16.30;102442.00;;;;5054155;28;20265;-45
2023/12/18 06:12:06;;;;;;;3.13;2.00;;;15.70;66.90;16.30;102438.00;;;;5052451;28;20181;-45
2023/12/18 06:14:31;;;;;;;5.97;2.33;;;15.70;66.90;16.30;102450.00;;;;5054349;28;20180;-45
2023/12/18 06:16:57;;;;;;;2.63;2.07;;;15.70;67.00;16.30;102442.00;;;;5052560;28;20170;-44
2023/12/18 06:19:23;;;;;;;2.63;2.00;;;15.70;67.00;16.30;102445.00;;;;5052923;28;20576;-44
2023/12/18 06:21:48;;;;;;;3.60;2.07;;;15.70;66.90;16.30;102446.00;;;;5054157;28;20242;-44
2023/12/18 06:24:14;;;;;;;3.07;1.90;;;15.70;66.90;16.30;102442.00;;;;5047150;28;20698;-45
2023/12/18 06:26:40;;;;;;;2.83;2.00;;;15.70;66.90;16.30;102449.00;;;;5053567;28;20527;-44
2023/12/18 06:29:06;;;;;;;2.27;2.00;;;15.70;67.00;16.30;102452.00;;;;5051546;28;20206;-44
2023/12/18 06:31:32;;;;;;;3.73;2.10;;;15.70;66.90;16.30;102440.00;;;;5054463;28;20225;-45
2023/12/18 06:33:58;;;;;;;3.17;2.10;;;15.70;66.80;16.30;102445.00;;;;5051747;28;20273;-45
2023/12/18 06:36:24;;;;;;;5.00;2.10;;;15.70;66.90;16.30;102447.00;;;;5051116;28;20253;-45
2023/12/18 06:38:50;;;;;;;2.20;2.00;;;15.80;67.00;16.30;102456.00;;;;5052607;28;20206;-45
2023/12/18 06:41:15;;;;;;;4.00;2.00;;;15.80;66.90;16.40;102451.00;;;;5049964;28;20660;-45
2023/12/18 06:43:41;;;;;;;4.53;1.90;;;15.80;66.80;16.40;102448.00;;;;5052437;28;20232;-45
2023/12/18 06:46:07;;;;;;;2.63;2.10;;;15.80;67.20;16.40;102445.00;;;;5051790;28;20213;-45
2023/12/18 06:48:33;;;;;;;3.33;2.07;;;15.80;67.40;16.40;102444.00;;;;5053162;28;20206;-46
2023/12/18 06:50:58;;;;;;;3.27;2.20;;;15.80;67.60;16.40;102445.00;;;;5051723;28;20603;-46
2023/12/18 06:53:25;;;;;;;5.50;2.27;;;15.80;67.60;16.40;102446.00;;;;5052170;28;20208;-47
2023/12/18 06:55:51;;;;;;;6.97;2.77;;;15.80;67.60;16.40;102456.00;;;;5052843;28;20196;-47
2023/12/18 06:58:16;;;;;;;7.73;3.40;;;15.80;68.40;16.40;102449.00;;;;5051693;28;20198;-45
2023/12/18 07:00:43;;;;;;;7.13;3.93;;;15.80;68.70;16.20;102466.00;;;;5053523;28;20763;-46
2023/12/18 07:03:09;;;;;;;10.53;5.73;;;15.80;69.00;16.40;102471.00;;;;5053370;28;20664;-45
2023/12/18 07:05:35;;;;;;;11.43;5.97;;;15.90;69.70;16.50;102479.00;;;;5058089;28;20251;-49
2023/12/18 07:08:01;;;;;;;8.47;6.17;;;15.90;69.90;16.50;102480.00;;;;5055640;28;20240;-45
2023/12/18 07:10:27;;;;;;;11.20;5.97;;;15.90;70.50;16.50;102481.00;;;;5056879;28;20688;-45
2023/12/18 07:12:53;;;;;;;13.57;6.67;;;15.90;70.50;16.50;102474.00;;;;5055748;28;20297;-45
2023/12/18 07:15:20;;;;;;;12.83;7.33;;;15.90;70.70;16.50;102486.00;;;;5055600;28;20304;-45
2023/12/18 07:17:46;;;;;;;12.87;7.53;;;15.90;70.80;16.50;102485.00;;;;5056293;28;20643;-45
2023/12/18 07:20:12;;;;;;;14.13;7.73;;;15.90;71.00;16.50;102492.00;;;;5055451;28;20237;-45
2023/12/18 07:22:40;;;;;;;12.17;7.53;;;15.90;71.40;16.50;102496.00;;;;5056430;28;20302;-45
2023/12/18 07:25:09;;;;;;;9.10;7.53;;;15.90;71.70;16.50;102489.00;;;;5055403;28;20852;-46
2023/12/18 07:27:35;;;;;;;9.83;7.33;;;15.90;71.80;16.60;102491.00;;;;5057301;28;20183;-44
2023/12/18 07:30:03;;;;;;;11.83;8.37;;;15.90;72.10;16.60;102487.00;;;;5054141;28;20179;-45
2023/12/18 07:32:30;;;;;;;12.97;8.63;;;16.00;73.90;16.60;102488.00;;;;5056361;28;20205;-47
2023/12/18 07:34:59;;;;;;;13.50;8.77;;;15.90;73.90;16.60;102487.00;;;;5055217;28;20178;-45
2023/12/18 07:37:27;;;;;;;14.60;8.60;;;15.90;73.90;16.60;102491.00;;;;5056448;28;20229;-45
2023/12/18 07:39:52;;;;;;;12.70;8.23;;;15.90;74.10;16.60;102495.00;;;;5055861;28;20297;-45
2023/12/18 07:42:18;;;;;;;11.67;8.27;;;16.00;74.30;16.60;102512.00;;;;5055721;28;20300;-46
2023/12/18 07:44:44;;;;;;;11.23;8.53;;;15.90;74.40;16.60;102506.00;;;;5057018;28;20224;-45
2023/12/18 07:47:10;;;;;;;10.77;8.13;;;15.90;74.10;16.60;102520.00;;;;5055152;28;20193;-45
2023/12/18 07:49:35;;;;;;;10.33;6.83;;;15.90;73.70;16.60;102508.00;;;;5056647;28;20197;-45
2023/12/18 07:52:02;;;;;;;10.80;7.30;;;15.90;73.60;16.60;102512.00;;;;5055203;28;20759;-45
2023/12/18 07:54:27;;;;;;;11.73;7.67;;;15.90;73.40;16.60;102520.00;;;;5052587;28;20182;-46
2023/12/18 07:56:53;;;;;;;9.73;7.23;;;15.90;73.50;16.60;102525.00;;;;5055454;28;20676;-45
2023/12/18 07:59:20;;;;;;;10.07;6.70;;;15.90;74.10;16.60;102530.00;;;;5054524;28;20207;-47
2023/12/18 08:01:46;;;;;;;9.10;7.10;;;15.90;74.20;16.60;102528.00;;;;5056409;28;20774;-46
2023/12/18 08:04:11;;;;;;;10.00;6.47;;;15.90;74.10;16.60;102526.00;;;;5057434;28;20198;-46
2023/12/18 08:06:37;;;;;;;10.73;6.87;;;15.90;74.10;16.50;102524.00;;;;5056900;28;20255;-45
2023/12/18 08:09:03;;;;;;;8.00;5.90;;;15.90;74.10;16.60;102530.00;;;;5054446;28;20832;-45
2023/12/18 08:11:29;;;;;;;7.20;5.73;;;15.90;74.20;16.50;102529.00;;;;5038168;28;20525;-45
2023/12/18 08:13:54;;;;;;;6.97;6.03;;;15.80;74.10;16.50;102523.00;;;;5054522;28;20202;-46
2023/12/18 08:16:20;;;;;;;9.30;6.30;;;15.80;74.10;16.50;102518.00;;;;5053531;28;20281;-45
2023/12/18 08:18:47;;;;;;;8.50;6.03;;;15.80;74.00;16.50;102512.00;;;;5055608;28;20215;-46
2023/12/18 08:21:13;;;;;;;8.00;5.60;;;15.80;74.00;16.50;102510.00;;;;5053285;28;20178;-46
2023/12/18 08:23:42;;;;;;;8.00;5.73;;;15.80;74.00;16.50;102513.00;;;;5055887;28;20220;-45
2023/12/18 08:26:11;;;;;;;5.87;5.10;;;15.80;73.90;16.50;102513.00;;;;5051934;28;20182;-45
2023/12/18 08:28:41;;;;;;;7.73;5.33;;;15.80;73.80;16.50;102509.00;;;;5052560;28;20735;-45
2023/12/18 08:31:07;;;;;;;7.87;5.43;;;15.80;73.70;16.50;102510.00;;;;5054192;28;20261;-45
2023/12/18 08:33:33;;;;;;;5.60;4.97;;;15.80;73.90;16.50;102512.00;;;;5047347;28;20608;-46
2023/12/18 08:35:58;;;;;;;8.07;5.50;;;15.80;73.80;16.50;102504.00;;;;5051415;28;20170;-45
2023/12/18 08:38:24;;;;;;;7.03;4.97;;;15.80;73.60;16.50;102500.00;;;;5054013;28;20204;-45
2023/12/18 08:40:50;;;;;;;5.40;4.90;;;15.90;73.50;16.50;102510.00;;;;5049778;28;20232;-45
2023/12/18 08:43:15;;;;;;;6.03;4.77;;;15.90;73.80;16.50;102499.00;;;;5053144;28;20186;-45
2023/12/18 08:45:42;;;;;;;5.77;5.00;;;15.80;73.80;16.50;102509.00;;;;5056277;28;20181;-45
2023/12/18 08:48:08;;;;;;;6.00;4.80;;;15.90;73.80;16.50;102506.00;;;;5052343;28;20213;-45
2023/12/18 08:50:34;;;;;;;5.37;4.17;;;15.80;73.70;16.50;102509.00;;;;5021434;28;20176;-45
2023/12/18 08:53:00;;;;;;;5.10;4.47;;;15.90;73.80;16.50;102513.00;;;;5035725;28;20185;-45
2023/12/18 08:55:25;;;;;;;6.17;4.63;;;15.90;73.80;16.50;102519.00;;;;5054150;28;20197;-45
2023/12/18 08:57:51;;;;;;;5.10;4.60;;;15.90;73.70;16.50;102516.00;;;;5053689;28;20209;-45
2023/12/18 09:00:17;;;;;;;5.20;4.13;;;15.90;73.70;16.50;102495.00;;;;5052247;28;20224;-45
2023/12/18 09:02:43;;;;;;;5.43;4.70;;;15.90;73.30;16.50;102497.00;;;;5051607;28;20738;-45
2023/12/18 09:05:09;;;;;;;6.57;4.30;;;15.80;72.90;16.50;102495.00;;;;5049158;28;20167;-45
2023/12/18 09:07:34;;;;;;;4.97;4.13;;;15.80;72.80;16.50;102492.00;;;;5055915;28;20194;-45
2023/12/18 09:10:00;;;;;;;4.93;4.43;;;15.80;72.80;16.50;102495.00;;;;5052762;28;20178;-45
2023/12/18 09:12:26;;;;;;;4.73;4.10;;;15.80;72.80;16.50;102493.00;;;;5053009;28;20188;-45
2023/12/18 09:14:51;;;;;;;4.27;3.87;;;15.80;72.50;16.50;102487.00;;;;5058435;28;20269;-45
2023/12/18 09:17:17;;;;;;;4.40;3.77;;;15.80;72.50;16.50;102486.00;;;;5053651;28;20194;-45
2023/12/18 09:19:43;;;;;;;5.43;4.20;;;15.80;72.40;16.50;102486.00;;;;5052254;28;20206;-44
2023/12/18 09:22:09;;;;;;;4.53;3.80;;;15.80;72.30;16.50;102491.00;;;;5052907;28;20705;-44
2023/12/18 09:24:34;;;;;;;4.00;3.60;;;15.80;72.30;16.50;102495.00;;;;5066789;28;20705;-44
2023/12/18 09:27:00;;;;;;;4.20;3.80;;;15.80;72.10;16.50;102492.00;;;;5054134;28;20541;-45
2023/12/18 09:29:26;;;;;;;3.90;3.60;;;15.80;72.00;16.50;102503.00;;;;5046421;28;20229;-47
2023/12/18 09:31:52;;;;;;;4.30;3.60;;;15.80;72.00;16.50;102493.00;;;;5053451;28;20695;-45
2023/12/18 09:34:18;;;;;;;4.50;3.60;;;15.80;72.00;16.50;102483.00;;;;5052017;28;20189;-44
2023/12/18 09:36:44;;;;;;;5.80;3.57;;;15.80;72.00;16.50;102486.00;;;;5058079;28;20592;-44
2023/12/18 09:39:10;;;;;;;4.27;3.60;;;15.90;72.50;16.50;102473.00;;;;5054759;28;20198;-46
2023/12/18 09:41:36;;;;;;;4.40;3.50;;;15.90;72.30;16.50;102481.00;;;;5055185;28;20862;-45
2023/12/18 09:44:01;;;;;;;3.90;3.47;;;15.90;72.90;16.50;102483.00;;;;5055568;28;20224;-44
2023/12/18 09:46:27;;;;;;;5.37;3.57;;;15.90;72.60;16.50;102476.00;;;;5052917;28;20174;-46
2023/12/18 09:48:53;;;;;;;3.30;3.00;;;15.90;72.60;16.50;102473.00;;;;5052675;28;20210;-45
2023/12/18 09:51:24;;;;;;;4.03;3.60;;;15.90;72.60;16.50;102447.00;;;;5052017;28;20190;-45
2023/12/18 09:53:51;;;;;;;9.37;3.73;;;15.90;72.60;16.50;102454.00;;;;5050804;28;20202;-45
2023/12/18 09:56:21;;;;;;;12.83;4.27;;;15.90;72.60;16.50;102455.00;;;;5051561;28;20178;-45
2023/12/18 09:58:47;;;;;;;6.40;3.80;;;15.90;72.60;16.50;102450.00;;;;5051391;28;20216;-45
2023/12/18 10:01:13;;;;;;;6.67;3.50;;;15.90;72.90;16.50;102456.00;;;;5052393;28;20178;-44
2023/12/18 10:03:39;;;;;;;6.33;3.67;;;15.90;73.00;16.50;102449.00;;;;5052649;28;20240;-44
2023/12/18 10:06:05;;;;;;;6.07;3.50;;;15.90;73.10;16.50;102454.00;;;;5052411;28;20617;-45
2023/12/18 10:08:31;;;;;;;5.20;3.43;;;15.90;73.00;16.50;102452.00;;;;5053331;28;20680;-44
2023/12/18 10:10:56;;;;;;;3.90;3.10;;;15.90;73.10;16.50;102444.00;;;;5052211;28;20721;-45
2023/12/18 10:13:24;;;;;;;3.43;2.97;;;15.90;74.00;16.50;102451.00;;;;5050479;28;20578;-45
2023/12/18 10:15:50;;;;;;;4.70;3.30;;;15.90;73.30;16.50;102446.00;;;;5051693;28;20220;-45
2023/12/18 10:18:18;;;;;;;5.37;3.47;;;15.80;73.30;16.60;102437.00;;;;5048265;28;20366;-45
2023/12/18 10:20:47;;;;;;;5.23;3.23;;;15.90;73.30;16.50;102432.00;;;;5049839;28;20178;-45
2023/12/18 10:23:13;;;;;;;3.30;3.00;;;15.90;73.40;16.60;102446.00;;;;5051101;28;20677;-44
2023/12/18 10:25:38;;;;;;;4.50;3.13;;;15.90;73.80;16.60;102443.00;;;;5054377;28;20174;-46
2023/12/18 10:28:06;;;;;;;4.53;3.10;;;15.90;73.90;16.60;102357.00;;;;5052078;28;20651;-46
2023/12/18 10:30:31;;;;;;;3.90;3.10;;;16.00;73.70;16.60;102441.00;;;;5053525;28;20300;-46
2023/12/18 10:32:59;;;;;;;3.87;3.13;;;15.90;73.50;16.50;102437.00;;;;5051276;28;20724;-45
2023/12/18 10:35:25;;;;;;;4.43;3.20;;;16.00;73.60;16.60;102433.00;;;;5052399;28;20174;-45
2023/12/18 10:37:54;;;;;;;4.10;3.03;;;16.00;73.50;16.60;102433.00;;;;5053090;28;20186;-46
2023/12/18 10:40:22;;;;;;;4.33;3.00;;;16.00;73.00;16.50;102436.00;;;;5055461;28;20235;-45
2023/12/18 10:43:30;;;;;;;3.67;3.10;;;15.90;72.70;16.60;102434.00;;;;5056916;28;20176;-45